sensor_id;sensor_type;location;lat;lon;timestamp;P1;durP1;ratioP1;P2;durP2;ratioP2
21354;SDS011;10835;50.148;19.760;2023-06-14T00:00:01;6.18;;;4.07;;
21354;SDS011;10835;50.148;19.760;2023-06-14T00:02:32;8.20;;;4.05;;
21354;SDS011;10835;50.148;19.760;2023-06-14T00:05:01;6.03;;;3.95;;
21354;SDS011;10835;50.148;19.760;2023-06-14T00:07:40;7.68;;;4.07;;
21354;SDS011;10835;50.148;19.760;2023-06-14T00:10:10;7.60;;;4.57;;
21354;SDS011;10835;50.148;19.760;2023-06-14T00:12:39;7.82;;;3.78;;
21354;SDS011;10835;50.148;19.760;2023-06-14T00:15:07;9.05;;;4.50;;
21354;SDS011;10835;50.148;19.760;2023-06-14T00:17:36;7.43;;;4.22;;
21354;SDS011;10835;50.148;19.760;2023-06-14T00:20:06;6.10;;;3.65;;
21354;SDS011;10835;50.148;19.760;2023-06-14T00:22:36;7.38;;;4.22;;
21354;SDS011;10835;50.148;19.760;2023-06-14T00:25:07;5.75;;;3.45;;
21354;SDS011;10835;50.148;19.760;2023-06-14T00:27:53;8.48;;;4.40;;
21354;SDS011;10835;50.148;19.760;2023-06-14T00:30:22;6.55;;;4.05;;
21354;SDS011;10835;50.148;19.760;2023-06-14T00:32:50;6.25;;;3.70;;
21354;SDS011;10835;50.148;19.760;2023-06-14T00:35:21;9.20;;;5.57;;
21354;SDS011;10835;50.148;19.760;2023-06-14T00:37:49;8.18;;;5.15;;
21354;SDS011;10835;50.148;19.760;2023-06-14T00:40:19;9.98;;;5.20;;
21354;SDS011;10835;50.148;19.760;2023-06-14T00:42:47;6.70;;;4.22;;
21354;SDS011;10835;50.148;19.760;2023-06-14T00:45:15;8.95;;;4.47;;
21354;SDS011;10835;50.148;19.760;2023-06-14T00:47:44;8.77;;;4.88;;
21354;SDS011;10835;50.148;19.760;2023-06-14T00:50:15;10.60;;;5.15;;
21354;SDS011;10835;50.148;19.760;2023-06-14T00:52:44;9.07;;;5.05;;
21354;SDS011;10835;50.148;19.760;2023-06-14T00:55:12;10.90;;;5.47;;
21354;SDS011;10835;50.148;19.760;2023-06-14T00:57:42;7.55;;;4.45;;
21354;SDS011;10835;50.148;19.760;2023-06-14T01:00:12;8.52;;;5.07;;
21354;SDS011;10835;50.148;19.760;2023-06-14T01:02:42;9.15;;;5.10;;
21354;SDS011;10835;50.148;19.760;2023-06-14T01:05:10;9.30;;;5.43;;
21354;SDS011;10835;50.148;19.760;2023-06-14T01:07:45;9.82;;;4.18;;
21354;SDS011;10835;50.148;19.760;2023-06-14T01:10:27;5.78;;;3.92;;
21354;SDS011;10835;50.148;19.760;2023-06-14T01:13:07;5.93;;;3.70;;
21354;SDS011;10835;50.148;19.760;2023-06-14T01:15:39;5.93;;;3.85;;
21354;SDS011;10835;50.148;19.760;2023-06-14T01:18:10;6.00;;;3.35;;
21354;SDS011;10835;50.148;19.760;2023-06-14T01:20:44;6.90;;;3.97;;
21354;SDS011;10835;50.148;19.760;2023-06-14T01:23:15;5.68;;;3.35;;
21354;SDS011;10835;50.148;19.760;2023-06-14T01:25:43;6.00;;;3.40;;
21354;SDS011;10835;50.148;19.760;2023-06-14T01:28:13;7.72;;;3.95;;
21354;SDS011;10835;50.148;19.760;2023-06-14T01:30:44;6.28;;;3.60;;
21354;SDS011;10835;50.148;19.760;2023-06-14T01:33:15;5.70;;;3.50;;
21354;SDS011;10835;50.148;19.760;2023-06-14T01:35:46;6.60;;;3.70;;
21354;SDS011;10835;50.148;19.760;2023-06-14T01:38:17;6.45;;;3.42;;
21354;SDS011;10835;50.148;19.760;2023-06-14T01:40:47;5.35;;;3.63;;
21354;SDS011;10835;50.148;19.760;2023-06-14T01:43:17;9.23;;;4.13;;
21354;SDS011;10835;50.148;19.760;2023-06-14T01:45:46;5.45;;;3.58;;
21354;SDS011;10835;50.148;19.760;2023-06-14T01:48:17;6.82;;;3.45;;
21354;SDS011;10835;50.148;19.760;2023-06-14T01:50:47;6.88;;;3.92;;
21354;SDS011;10835;50.148;19.760;2023-06-14T01:53:17;5.50;;;3.92;;
21354;SDS011;10835;50.148;19.760;2023-06-14T01:55:46;6.82;;;4.32;;
21354;SDS011;10835;50.148;19.760;2023-06-14T01:58:15;9.98;;;4.40;;
21354;SDS011;10835;50.148;19.760;2023-06-14T02:00:44;8.15;;;4.60;;
21354;SDS011;10835;50.148;19.760;2023-06-14T02:03:14;7.63;;;4.38;;
21354;SDS011;10835;50.148;19.760;2023-06-14T02:05:42;6.45;;;4.45;;
21354;SDS011;10835;50.148;19.760;2023-06-14T02:08:11;9.38;;;4.20;;
21354;SDS011;10835;50.148;19.760;2023-06-14T02:10:40;9.63;;;4.60;;
21354;SDS011;10835;50.148;19.760;2023-06-14T02:13:09;6.93;;;3.97;;
21354;SDS011;10835;50.148;19.760;2023-06-14T02:15:38;9.10;;;5.00;;
21354;SDS011;10835;50.148;19.760;2023-06-14T02:18:10;7.10;;;4.30;;
21354;SDS011;10835;50.148;19.760;2023-06-14T02:20:39;7.78;;;4.32;;
21354;SDS011;10835;50.148;19.760;2023-06-14T02:23:08;7.80;;;4.80;;
21354;SDS011;10835;50.148;19.760;2023-06-14T02:25:37;7.25;;;4.70;;
21354;SDS011;10835;50.148;19.760;2023-06-14T02:28:08;6.53;;;4.22;;
21354;SDS011;10835;50.148;19.760;2023-06-14T02:30:38;7.82;;;4.80;;
21354;SDS011;10835;50.148;19.760;2023-06-14T02:33:07;7.72;;;4.57;;
21354;SDS011;10835;50.148;19.760;2023-06-14T02:35:39;7.25;;;4.35;;
21354;SDS011;10835;50.148;19.760;2023-06-14T02:38:08;6.50;;;3.92;;
21354;SDS011;10835;50.148;19.760;2023-06-14T02:40:36;7.65;;;4.68;;
21354;SDS011;10835;50.148;19.760;2023-06-14T02:43:04;6.40;;;4.03;;
21354;SDS011;10835;50.148;19.760;2023-06-14T02:45:36;7.30;;;4.15;;
21354;SDS011;10835;50.148;19.760;2023-06-14T02:48:05;7.60;;;4.25;;
21354;SDS011;10835;50.148;19.760;2023-06-14T02:50:33;8.27;;;4.25;;
21354;SDS011;10835;50.148;19.760;2023-06-14T02:53:01;5.80;;;3.83;;
21354;SDS011;10835;50.148;19.760;2023-06-14T02:55:30;7.80;;;3.38;;
21354;SDS011;10835;50.148;19.760;2023-06-14T02:57:58;6.95;;;3.63;;
21354;SDS011;10835;50.148;19.760;2023-06-14T03:00:27;6.38;;;3.67;;
21354;SDS011;10835;50.148;19.760;2023-06-14T03:02:58;6.07;;;3.78;;
21354;SDS011;10835;50.148;19.760;2023-06-14T03:05:29;5.75;;;3.60;;
21354;SDS011;10835;50.148;19.760;2023-06-14T03:07:57;5.38;;;2.95;;
21354;SDS011;10835;50.148;19.760;2023-06-14T03:10:26;3.65;;;2.78;;
21354;SDS011;10835;50.148;19.760;2023-06-14T03:12:57;3.90;;;2.70;;
21354;SDS011;10835;50.148;19.760;2023-06-14T03:15:25;4.75;;;2.10;;
21354;SDS011;10835;50.148;19.760;2023-06-14T03:17:54;3.00;;;2.08;;
21354;SDS011;10835;50.148;19.760;2023-06-14T03:20:24;2.78;;;1.88;;
21354;SDS011;10835;50.148;19.760;2023-06-14T03:22:56;3.03;;;2.22;;
21354;SDS011;10835;50.148;19.760;2023-06-14T03:25:24;6.30;;;3.55;;
21354;SDS011;10835;50.148;19.760;2023-06-14T03:27:56;8.13;;;4.35;;
21354;SDS011;10835;50.148;19.760;2023-06-14T03:30:24;8.43;;;4.78;;
21354;SDS011;10835;50.148;19.760;2023-06-14T03:32:54;9.05;;;4.85;;
21354;SDS011;10835;50.148;19.760;2023-06-14T03:35:27;13.18;;;5.40;;
21354;SDS011;10835;50.148;19.760;2023-06-14T03:37:56;12.15;;;5.28;;
21354;SDS011;10835;50.148;19.760;2023-06-14T03:40:24;7.85;;;4.00;;
21354;SDS011;10835;50.148;19.760;2023-06-14T03:43:02;8.43;;;4.20;;
21354;SDS011;10835;50.148;19.760;2023-06-14T03:45:31;8.60;;;3.70;;
21354;SDS011;10835;50.148;19.760;2023-06-14T03:48:01;8.73;;;4.40;;
21354;SDS011;10835;50.148;19.760;2023-06-14T03:50:35;9.27;;;4.20;;
21354;SDS011;10835;50.148;19.760;2023-06-14T03:53:05;7.93;;;4.38;;
21354;SDS011;10835;50.148;19.760;2023-06-14T03:55:35;7.82;;;4.28;;
21354;SDS011;10835;50.148;19.760;2023-06-14T03:58:25;8.95;;;5.00;;
21354;SDS011;10835;50.148;19.760;2023-06-14T04:00:55;8.27;;;4.95;;
21354;SDS011;10835;50.148;19.760;2023-06-14T04:03:24;9.38;;;5.07;;
21354;SDS011;10835;50.148;19.760;2023-06-14T04:05:58;9.85;;;4.70;;
21354;SDS011;10835;50.148;19.760;2023-06-14T04:08:27;7.80;;;4.40;;
21354;SDS011;10835;50.148;19.760;2023-06-14T04:10:57;6.38;;;3.88;;
21354;SDS011;10835;50.148;19.760;2023-06-14T04:13:25;8.85;;;4.30;;
21354;SDS011;10835;50.148;19.760;2023-06-14T04:15:54;10.70;;;5.55;;
21354;SDS011;10835;50.148;19.760;2023-06-14T04:18:28;7.80;;;4.18;;
21354;SDS011;10835;50.148;19.760;2023-06-14T04:20:57;7.32;;;4.03;;
21354;SDS011;10835;50.148;19.760;2023-06-14T04:23:28;9.82;;;4.63;;
21354;SDS011;10835;50.148;19.760;2023-06-14T04:25:57;8.43;;;4.80;;
21354;SDS011;10835;50.148;19.760;2023-06-14T04:28:29;8.00;;;5.18;;
21354;SDS011;10835;50.148;19.760;2023-06-14T04:31:00;10.38;;;4.78;;
21354;SDS011;10835;50.148;19.760;2023-06-14T04:33:31;7.90;;;4.45;;
21354;SDS011;10835;50.148;19.760;2023-06-14T04:36:04;9.90;;;5.70;;
21354;SDS011;10835;50.148;19.760;2023-06-14T04:38:35;13.45;;;5.65;;
21354;SDS011;10835;50.148;19.760;2023-06-14T04:41:03;10.57;;;5.70;;
21354;SDS011;10835;50.148;19.760;2023-06-14T04:43:31;8.27;;;5.15;;
21354;SDS011;10835;50.148;19.760;2023-06-14T04:46:06;8.88;;;5.72;;
21354;SDS011;10835;50.148;19.760;2023-06-14T04:48:38;9.95;;;5.43;;
21354;SDS011;10835;50.148;19.760;2023-06-14T04:51:11;9.40;;;4.57;;
21354;SDS011;10835;50.148;19.760;2023-06-14T04:53:42;9.77;;;5.65;;
21354;SDS011;10835;50.148;19.760;2023-06-14T04:56:11;11.02;;;6.20;;
21354;SDS011;10835;50.148;19.760;2023-06-14T04:58:40;9.18;;;5.03;;
21354;SDS011;10835;50.148;19.760;2023-06-14T05:01:12;8.48;;;4.68;;
21354;SDS011;10835;50.148;19.760;2023-06-14T05:03:41;6.32;;;4.18;;
21354;SDS011;10835;50.148;19.760;2023-06-14T05:06:13;7.97;;;5.00;;
21354;SDS011;10835;50.148;19.760;2023-06-14T05:08:45;7.63;;;5.15;;
21354;SDS011;10835;50.148;19.760;2023-06-14T05:11:13;6.40;;;4.15;;
21354;SDS011;10835;50.148;19.760;2023-06-14T05:13:43;11.90;;;6.40;;
21354;SDS011;10835;50.148;19.760;2023-06-14T05:16:12;9.30;;;5.93;;
21354;SDS011;10835;50.148;19.760;2023-06-14T05:18:45;12.32;;;6.35;;
21354;SDS011;10835;50.148;19.760;2023-06-14T05:21:15;8.13;;;5.13;;
21354;SDS011;10835;50.148;19.760;2023-06-14T05:23:44;15.15;;;6.60;;
21354;SDS011;10835;50.148;19.760;2023-06-14T05:26:13;11.15;;;6.55;;
21354;SDS011;10835;50.148;19.760;2023-06-14T05:28:41;12.82;;;6.28;;
21354;SDS011;10835;50.148;19.760;2023-06-14T05:31:09;9.93;;;5.15;;
21354;SDS011;10835;50.148;19.760;2023-06-14T05:33:38;9.27;;;5.03;;
21354;SDS011;10835;50.148;19.760;2023-06-14T05:36:07;6.80;;;4.18;;
21354;SDS011;10835;50.148;19.760;2023-06-14T05:38:36;9.32;;;5.00;;
21354;SDS011;10835;50.148;19.760;2023-06-14T05:41:04;4.18;;;2.88;;
21354;SDS011;10835;50.148;19.760;2023-06-14T05:43:33;5.57;;;4.22;;
21354;SDS011;10835;50.148;19.760;2023-06-14T05:46:01;7.53;;;4.15;;
21354;SDS011;10835;50.148;19.760;2023-06-14T05:48:30;4.70;;;2.30;;
21354;SDS011;10835;50.148;19.760;2023-06-14T05:51:01;4.05;;;2.70;;
21354;SDS011;10835;50.148;19.760;2023-06-14T05:53:29;8.88;;;4.82;;
21354;SDS011;10835;50.148;19.760;2023-06-14T05:55:59;7.15;;;4.78;;
21354;SDS011;10835;50.148;19.760;2023-06-14T05:58:27;5.57;;;2.33;;
21354;SDS011;10835;50.148;19.760;2023-06-14T06:00:55;4.30;;;2.58;;
21354;SDS011;10835;50.148;19.760;2023-06-14T06:03:24;3.85;;;2.35;;
21354;SDS011;10835;50.148;19.760;2023-06-14T06:05:55;1.60;;;1.02;;
21354;SDS011;10835;50.148;19.760;2023-06-14T06:08:24;0.70;;;0.70;;
21354;SDS011;10835;50.148;19.760;2023-06-14T06:10:53;0.90;;;0.70;;
21354;SDS011;10835;50.148;19.760;2023-06-14T06:13:25;0.60;;;0.60;;
21354;SDS011;10835;50.148;19.760;2023-06-14T06:15:56;0.60;;;0.52;;
21354;SDS011;10835;50.148;19.760;2023-06-14T06:18:24;0.40;;;0.40;;
21354;SDS011;10835;50.148;19.760;2023-06-14T06:20:52;0.60;;;0.60;;
21354;SDS011;10835;50.148;19.760;2023-06-14T06:23:25;0.55;;;0.55;;
21354;SDS011;10835;50.148;19.760;2023-06-14T06:25:53;0.57;;;0.57;;
21354;SDS011;10835;50.148;19.760;2023-06-14T06:28:25;0.68;;;0.68;;
21354;SDS011;10835;50.148;19.760;2023-06-14T06:30:54;0.55;;;0.55;;
21354;SDS011;10835;50.148;19.760;2023-06-14T06:33:22;0.82;;;0.82;;
21354;SDS011;10835;50.148;19.760;2023-06-14T06:35:51;0.90;;;0.80;;
21354;SDS011;10835;50.148;19.760;2023-06-14T06:38:19;1.77;;;0.95;;
21354;SDS011;10835;50.148;19.760;2023-06-14T06:40:48;1.42;;;1.02;;
21354;SDS011;10835;50.148;19.760;2023-06-14T06:43:16;1.75;;;1.10;;
21354;SDS011;10835;50.148;19.760;2023-06-14T06:45:48;2.90;;;1.30;;
21354;SDS011;10835;50.148;19.760;2023-06-14T06:48:16;1.40;;;1.25;;
21354;SDS011;10835;50.148;19.760;2023-06-14T06:50:44;1.52;;;1.33;;
21354;SDS011;10835;50.148;19.760;2023-06-14T06:53:13;2.05;;;1.42;;
21354;SDS011;10835;50.148;19.760;2023-06-14T06:55:46;1.60;;;1.50;;
21354;SDS011;10835;50.148;19.760;2023-06-14T06:58:14;1.35;;;1.23;;
21354;SDS011;10835;50.148;19.760;2023-06-14T07:00:43;2.15;;;1.52;;
21354;SDS011;10835;50.148;19.760;2023-06-14T07:03:12;1.83;;;1.52;;
21354;SDS011;10835;50.148;19.760;2023-06-14T07:05:44;3.55;;;2.05;;
21354;SDS011;10835;50.148;19.760;2023-06-14T07:08:12;3.17;;;1.92;;
21354;SDS011;10835;50.148;19.760;2023-06-14T07:10:40;3.53;;;1.90;;
21354;SDS011;10835;50.148;19.760;2023-06-14T07:13:11;1.67;;;1.48;;
21354;SDS011;10835;50.148;19.760;2023-06-14T07:15:40;1.65;;;1.35;;
21354;SDS011;10835;50.148;19.760;2023-06-14T07:18:08;2.30;;;1.58;;
21354;SDS011;10835;50.148;19.760;2023-06-14T07:20:40;1.73;;;1.20;;
21354;SDS011;10835;50.148;19.760;2023-06-14T07:23:09;0.65;;;0.55;;
21354;SDS011;10835;50.148;19.760;2023-06-14T07:25:38;1.00;;;0.90;;
21354;SDS011;10835;50.148;19.760;2023-06-14T07:28:06;1.40;;;0.90;;
21354;SDS011;10835;50.148;19.760;2023-06-14T07:30:35;1.27;;;0.90;;
21354;SDS011;10835;50.148;19.760;2023-06-14T07:33:03;2.20;;;1.63;;
21354;SDS011;10835;50.148;19.760;2023-06-14T07:35:32;1.33;;;1.10;;
21354;SDS011;10835;50.148;19.760;2023-06-14T07:38:02;1.50;;;1.40;;
21354;SDS011;10835;50.148;19.760;2023-06-14T07:40:30;0.68;;;0.68;;
21354;SDS011;10835;50.148;19.760;2023-06-14T07:42:58;1.50;;;0.70;;
21354;SDS011;10835;50.148;19.760;2023-06-14T07:45:28;0.98;;;0.80;;
21354;SDS011;10835;50.148;19.760;2023-06-14T07:47:56;0.57;;;0.57;;
21354;SDS011;10835;50.148;19.760;2023-06-14T07:50:24;7.60;;;2.92;;
21354;SDS011;10835;50.148;19.760;2023-06-14T07:52:52;2.78;;;1.63;;
21354;SDS011;10835;50.148;19.760;2023-06-14T07:55:22;1.80;;;1.00;;
21354;SDS011;10835;50.148;19.760;2023-06-14T07:57:51;5.13;;;2.70;;
21354;SDS011;10835;50.148;19.760;2023-06-14T08:00:20;3.58;;;1.92;;
21354;SDS011;10835;50.148;19.760;2023-06-14T08:02:48;1.58;;;1.15;;
21354;SDS011;10835;50.148;19.760;2023-06-14T08:05:24;0.93;;;0.60;;
21354;SDS011;10835;50.148;19.760;2023-06-14T08:07:53;1.08;;;0.60;;
21354;SDS011;10835;50.148;19.760;2023-06-14T08:10:23;0.75;;;0.70;;
21354;SDS011;10835;50.148;19.760;2023-06-14T08:12:51;0.43;;;0.43;;
21354;SDS011;10835;50.148;19.760;2023-06-14T08:15:22;1.20;;;0.73;;
21354;SDS011;10835;50.148;19.760;2023-06-14T08:17:50;0.55;;;0.55;;
21354;SDS011;10835;50.148;19.760;2023-06-14T08:20:18;0.68;;;0.60;;
21354;SDS011;10835;50.148;19.760;2023-06-14T08:22:46;1.20;;;0.82;;
21354;SDS011;10835;50.148;19.760;2023-06-14T08:25:15;0.88;;;0.77;;
21354;SDS011;10835;50.148;19.760;2023-06-14T08:27:45;13.05;;;3.92;;
21354;SDS011;10835;50.148;19.760;2023-06-14T08:30:13;4.10;;;1.70;;
21354;SDS011;10835;50.148;19.760;2023-06-14T08:32:45;1.13;;;1.00;;
21354;SDS011;10835;50.148;19.760;2023-06-14T08:35:21;1.52;;;1.10;;
21354;SDS011;10835;50.148;19.760;2023-06-14T08:37:50;2.22;;;1.77;;
21354;SDS011;10835;50.148;19.760;2023-06-14T08:40:19;5.68;;;1.92;;
21354;SDS011;10835;50.148;19.760;2023-06-14T08:42:53;1.73;;;1.17;;
21354;SDS011;10835;50.148;19.760;2023-06-14T08:45:23;3.10;;;1.20;;
21354;SDS011;10835;50.148;19.760;2023-06-14T08:47:55;1.90;;;1.20;;
21354;SDS011;10835;50.148;19.760;2023-06-14T08:50:26;1.17;;;1.08;;
21354;SDS011;10835;50.148;19.760;2023-06-14T08:52:58;0.90;;;0.90;;
21354;SDS011;10835;50.148;19.760;2023-06-14T08:55:32;1.15;;;1.05;;
21354;SDS011;10835;50.148;19.760;2023-06-14T08:58:05;1.00;;;0.90;;
21354;SDS011;10835;50.148;19.760;2023-06-14T09:00:35;1.67;;;1.20;;
21354;SDS011;10835;50.148;19.760;2023-06-14T09:03:05;1.27;;;1.10;;
21354;SDS011;10835;50.148;19.760;2023-06-14T09:05:37;1.25;;;1.15;;
21354;SDS011;10835;50.148;19.760;2023-06-14T09:08:05;1.38;;;1.27;;
21354;SDS011;10835;50.148;19.760;2023-06-14T09:10:34;2.50;;;1.35;;
21354;SDS011;10835;50.148;19.760;2023-06-14T09:13:06;1.98;;;1.30;;
21354;SDS011;10835;50.148;19.760;2023-06-14T09:15:34;1.65;;;1.55;;
21354;SDS011;10835;50.148;19.760;2023-06-14T09:18:03;2.65;;;1.60;;
21354;SDS011;10835;50.148;19.760;2023-06-14T09:20:32;1.80;;;1.58;;
21354;SDS011;10835;50.148;19.760;2023-06-14T09:23:01;2.80;;;2.50;;
21354;SDS011;10835;50.148;19.760;2023-06-14T09:25:32;3.20;;;1.65;;
21354;SDS011;10835;50.148;19.760;2023-06-14T09:28:10;2.45;;;2.25;;
21354;SDS011;10835;50.148;19.760;2023-06-14T09:30:38;2.42;;;1.95;;
21354;SDS011;10835;50.148;19.760;2023-06-14T09:33:07;2.60;;;2.17;;
21354;SDS011;10835;50.148;19.760;2023-06-14T09:35:36;3.70;;;2.40;;
21354;SDS011;10835;50.148;19.760;2023-06-14T09:38:04;2.45;;;2.25;;
21354;SDS011;10835;50.148;19.760;2023-06-14T09:40:36;3.33;;;2.65;;
21354;SDS011;10835;50.148;19.760;2023-06-14T09:43:05;2.33;;;2.00;;
21354;SDS011;10835;50.148;19.760;2023-06-14T09:45:36;8.60;;;2.88;;
21354;SDS011;10835;50.148;19.760;2023-06-14T09:48:07;4.63;;;2.80;;
21354;SDS011;10835;50.148;19.760;2023-06-14T09:50:36;2.45;;;2.20;;
21354;SDS011;10835;50.148;19.760;2023-06-14T09:53:06;3.28;;;2.10;;
21354;SDS011;10835;50.148;19.760;2023-06-14T09:55:36;3.10;;;2.40;;
21354;SDS011;10835;50.148;19.760;2023-06-14T09:58:05;2.67;;;2.20;;
21354;SDS011;10835;50.148;19.760;2023-06-14T10:00:36;2.83;;;2.53;;
21354;SDS011;10835;50.148;19.760;2023-06-14T10:03:11;3.67;;;2.20;;
21354;SDS011;10835;50.148;19.760;2023-06-14T10:05:41;4.07;;;2.30;;
21354;SDS011;10835;50.148;19.760;2023-06-14T10:08:13;3.65;;;2.38;;
21354;SDS011;10835;50.148;19.760;2023-06-14T10:10:43;3.95;;;2.67;;
21354;SDS011;10835;50.148;19.760;2023-06-14T10:13:12;2.85;;;2.13;;
21354;SDS011;10835;50.148;19.760;2023-06-14T10:15:48;2.95;;;2.03;;
21354;SDS011;10835;50.148;19.760;2023-06-14T10:18:24;3.97;;;2.42;;
21354;SDS011;10835;50.148;19.760;2023-06-14T10:21:05;4.97;;;2.55;;
21354;SDS011;10835;50.148;19.760;2023-06-14T10:23:41;3.38;;;2.20;;
21354;SDS011;10835;50.148;19.760;2023-06-14T10:26:17;3.58;;;2.08;;
21354;SDS011;10835;50.148;19.760;2023-06-14T10:28:56;4.50;;;2.38;;
21354;SDS011;10835;50.148;19.760;2023-06-14T10:31:43;4.60;;;2.50;;
21354;SDS011;10835;50.148;19.760;2023-06-14T10:34:12;3.20;;;2.20;;
21354;SDS011;10835;50.148;19.760;2023-06-14T10:37:03;2.42;;;2.22;;
21354;SDS011;10835;50.148;19.760;2023-06-14T10:39:38;2.20;;;1.88;;
21354;SDS011;10835;50.148;19.760;2023-06-14T10:42:07;3.10;;;2.20;;
21354;SDS011;10835;50.148;19.760;2023-06-14T10:44:40;4.60;;;2.85;;
21354;SDS011;10835;50.148;19.760;2023-06-14T10:47:27;5.15;;;3.70;;
21354;SDS011;10835;50.148;19.760;2023-06-14T10:49:57;3.63;;;2.20;;
21354;SDS011;10835;50.148;19.760;2023-06-14T10:52:32;2.08;;;1.75;;
21354;SDS011;10835;50.148;19.760;2023-06-14T10:55:06;3.60;;;2.17;;
21354;SDS011;10835;50.148;19.760;2023-06-14T10:57:43;4.72;;;2.47;;
21354;SDS011;10835;50.148;19.760;2023-06-14T11:00:18;3.40;;;2.78;;
21354;SDS011;10835;50.148;19.760;2023-06-14T11:05:51;3.25;;;2.28;;
21354;SDS011;10835;50.148;19.760;2023-06-14T11:11:31;4.55;;;2.50;;
21354;SDS011;10835;50.148;19.760;2023-06-14T11:14:00;4.18;;;2.70;;
21354;SDS011;10835;50.148;19.760;2023-06-14T11:16:31;5.97;;;2.53;;
21354;SDS011;10835;50.148;19.760;2023-06-14T11:19:00;4.18;;;2.50;;
21354;SDS011;10835;50.148;19.760;2023-06-14T11:21:33;4.80;;;2.63;;
21354;SDS011;10835;50.148;19.760;2023-06-14T11:24:01;3.88;;;2.67;;
21354;SDS011;10835;50.148;19.760;2023-06-14T11:26:30;2.63;;;2.42;;
21354;SDS011;10835;50.148;19.760;2023-06-14T11:29:01;2.90;;;2.58;;
21354;SDS011;10835;50.148;19.760;2023-06-14T11:31:30;3.25;;;2.95;;
21354;SDS011;10835;50.148;19.760;2023-06-14T11:33:59;3.40;;;2.90;;
21354;SDS011;10835;50.148;19.760;2023-06-14T11:36:28;3.35;;;2.75;;
21354;SDS011;10835;50.148;19.760;2023-06-14T11:38:59;5.53;;;2.72;;
21354;SDS011;10835;50.148;19.760;2023-06-14T11:41:33;3.08;;;2.70;;
21354;SDS011;10835;50.148;19.760;2023-06-14T11:44:03;8.02;;;3.20;;
21354;SDS011;10835;50.148;19.760;2023-06-14T11:46:32;3.60;;;2.63;;
21354;SDS011;10835;50.148;19.760;2023-06-14T11:49:03;3.97;;;3.10;;
21354;SDS011;10835;50.148;19.760;2023-06-14T11:51:34;3.45;;;2.40;;
21354;SDS011;10835;50.148;19.760;2023-06-14T11:54:05;4.43;;;2.95;;
21354;SDS011;10835;50.148;19.760;2023-06-14T11:56:36;4.60;;;3.63;;
21354;SDS011;10835;50.148;19.760;2023-06-14T11:59:04;3.38;;;2.88;;
21354;SDS011;10835;50.148;19.760;2023-06-14T12:01:35;3.55;;;2.72;;
21354;SDS011;10835;50.148;19.760;2023-06-14T12:04:06;3.88;;;2.92;;
21354;SDS011;10835;50.148;19.760;2023-06-14T12:06:34;4.45;;;3.03;;
21354;SDS011;10835;50.148;19.760;2023-06-14T12:09:08;4.15;;;3.05;;
21354;SDS011;10835;50.148;19.760;2023-06-14T12:12:27;5.82;;;3.17;;
21354;SDS011;10835;50.148;19.760;2023-06-14T12:15:27;4.28;;;3.75;;
21354;SDS011;10835;50.148;19.760;2023-06-14T12:18:48;6.78;;;4.07;;
21354;SDS011;10835;50.148;19.760;2023-06-14T12:21:46;6.55;;;3.15;;
21354;SDS011;10835;50.148;19.760;2023-06-14T12:24:41;7.15;;;3.38;;
21354;SDS011;10835;50.148;19.760;2023-06-14T12:32:48;4.95;;;3.25;;
21354;SDS011;10835;50.148;19.760;2023-06-14T12:36:42;7.03;;;4.93;;
21354;SDS011;10835;50.148;19.760;2023-06-14T12:39:53;5.60;;;3.95;;
21354;SDS011;10835;50.148;19.760;2023-06-14T12:42:50;5.22;;;3.63;;
21354;SDS011;10835;50.148;19.760;2023-06-14T12:45:35;3.92;;;3.05;;
21354;SDS011;10835;50.148;19.760;2023-06-14T12:48:55;5.00;;;3.67;;
21354;SDS011;10835;50.148;19.760;2023-06-14T12:51:53;6.35;;;3.22;;
21354;SDS011;10835;50.148;19.760;2023-06-14T12:55:35;5.28;;;2.90;;
21354;SDS011;10835;50.148;19.760;2023-06-14T12:58:19;5.28;;;2.90;;
21354;SDS011;10835;50.148;19.760;2023-06-14T13:01:15;4.53;;;2.90;;
21354;SDS011;10835;50.148;19.760;2023-06-14T13:03:47;3.20;;;2.60;;
21354;SDS011;10835;50.148;19.760;2023-06-14T13:06:52;4.80;;;2.83;;
21354;SDS011;10835;50.148;19.760;2023-06-14T13:09:42;4.38;;;2.75;;
21354;SDS011;10835;50.148;19.760;2023-06-14T13:12:39;3.92;;;2.38;;
21354;SDS011;10835;50.148;19.760;2023-06-14T13:15:59;3.58;;;2.60;;
21354;SDS011;10835;50.148;19.760;2023-06-14T13:22:53;2.95;;;2.50;;
21354;SDS011;10835;50.148;19.760;2023-06-14T13:26:30;4.80;;;2.50;;
21354;SDS011;10835;50.148;19.760;2023-06-14T13:29:24;4.32;;;2.50;;
21354;SDS011;10835;50.148;19.760;2023-06-14T13:32:23;3.97;;;2.05;;
21354;SDS011;10835;50.148;19.760;2023-06-14T13:35:14;4.75;;;2.40;;
21354;SDS011;10835;50.148;19.760;2023-06-14T13:38:03;3.90;;;2.50;;
21354;SDS011;10835;50.148;19.760;2023-06-14T13:40:56;3.40;;;2.22;;
21354;SDS011;10835;50.148;19.760;2023-06-14T13:43:52;3.92;;;2.63;;
21354;SDS011;10835;50.148;19.760;2023-06-14T13:46:45;6.15;;;2.47;;
21354;SDS011;10835;50.148;19.760;2023-06-14T13:49:25;2.75;;;2.15;;
21354;SDS011;10835;50.148;19.760;2023-06-14T13:52:03;3.20;;;2.13;;
21354;SDS011;10835;50.148;19.760;2023-06-14T13:54:46;5.15;;;2.97;;
21354;SDS011;10835;50.148;19.760;2023-06-14T13:57:42;4.47;;;2.70;;
21354;SDS011;10835;50.148;19.760;2023-06-14T14:00:19;2.92;;;2.10;;
21354;SDS011;10835;50.148;19.760;2023-06-14T14:03:21;5.68;;;3.10;;
21354;SDS011;10835;50.148;19.760;2023-06-14T14:05:55;4.75;;;2.53;;
21354;SDS011;10835;50.148;19.760;2023-06-14T14:08:50;3.83;;;2.50;;
21354;SDS011;10835;50.148;19.760;2023-06-14T14:11:51;4.38;;;2.88;;
21354;SDS011;10835;50.148;19.760;2023-06-14T14:14:32;4.18;;;2.63;;
21354;SDS011;10835;50.148;19.760;2023-06-14T14:17:22;3.90;;;2.90;;
21354;SDS011;10835;50.148;19.760;2023-06-14T14:19:54;3.90;;;2.83;;
21354;SDS011;10835;50.148;19.760;2023-06-14T14:22:36;3.58;;;2.72;;
21354;SDS011;10835;50.148;19.760;2023-06-14T14:25:09;3.83;;;2.70;;
21354;SDS011;10835;50.148;19.760;2023-06-14T14:30:46;3.33;;;2.40;;
21354;SDS011;10835;50.148;19.760;2023-06-14T14:33:26;4.05;;;2.47;;
21354;SDS011;10835;50.148;19.760;2023-06-14T14:36:06;4.18;;;2.17;;
21354;SDS011;10835;50.148;19.760;2023-06-14T14:38:42;5.32;;;2.50;;
21354;SDS011;10835;50.148;19.760;2023-06-14T14:41:37;5.75;;;2.80;;
21354;SDS011;10835;50.148;19.760;2023-06-14T14:44:16;4.10;;;2.72;;
21354;SDS011;10835;50.148;19.760;2023-06-14T14:47:03;4.40;;;2.97;;
21354;SDS011;10835;50.148;19.760;2023-06-14T14:49:49;5.15;;;3.00;;
21354;SDS011;10835;50.148;19.760;2023-06-14T14:52:41;4.97;;;3.13;;
21354;SDS011;10835;50.148;19.760;2023-06-14T14:56:05;2.85;;;2.55;;
21354;SDS011;10835;50.148;19.760;2023-06-14T14:58:36;5.50;;;2.97;;
21354;SDS011;10835;50.148;19.760;2023-06-14T15:01:36;5.53;;;3.05;;
21354;SDS011;10835;50.148;19.760;2023-06-14T15:04:35;5.95;;;2.60;;
21354;SDS011;10835;50.148;19.760;2023-06-14T15:17:03;3.30;;;2.70;;
21354;SDS011;10835;50.148;19.760;2023-06-14T15:24:35;2.20;;;2.00;;
21354;SDS011;10835;50.148;19.760;2023-06-14T15:32:28;2.92;;;2.47;;
21354;SDS011;10835;50.148;19.760;2023-06-14T15:44:34;3.20;;;2.08;;
21354;SDS011;10835;50.148;19.760;2023-06-14T15:47:03;5.38;;;2.90;;
21354;SDS011;10835;50.148;19.760;2023-06-14T15:49:33;3.03;;;2.50;;
21354;SDS011;10835;50.148;19.760;2023-06-14T15:52:04;3.63;;;2.42;;
21354;SDS011;10835;50.148;19.760;2023-06-14T15:54:33;3.53;;;2.72;;
21354;SDS011;10835;50.148;19.760;2023-06-14T15:57:01;2.83;;;2.33;;
21354;SDS011;10835;50.148;19.760;2023-06-14T15:59:30;3.00;;;2.58;;
21354;SDS011;10835;50.148;19.760;2023-06-14T16:01:59;2.85;;;2.15;;